Terminal Aerodrome Forecast
Issued by NWS Boston, MA

Home | Current Version | Previous Version | Text Only | Print | Product List | Glossary On
Versions: 1 2 3 4 5 6 7 8 9 10 11 12 13 14 15 16 17 18 19 20 21 22 23 24 25 26 27 28 29 30 31 32 33 34 35 36 37 38 39 40 41 42 43 44 45 46 47 48 49 50
000
FTUS41 KBOX 231124
TAFBDL
TAF
KBDL 231124Z 2312/2418 01008KT 3SM -RA BR SCT008 OVC035
     FM231900 01005KT P6SM OVC040
     FM240200 04003KT P6SM OVC050
     FM240500 00000KT 6SM BR OVC030
     FM241200 36005KT P6SM BKN100=

USA.gov is the U.S. government's official web portal to all federal, state and local government web resources and services.